Time;durP1;ratioP1;P1;durP2;ratioP2;P2;SDS_P1;SDS_P2;PMS_P1;PMS_P2;Temp;Humidity;BMP_temperature;BMP_pressure;BME280_temperature;BME280_humidity;BME280_pressure;Samples;Min_cycle;Max_cycle;Signal;HPM_P1;HPM_P2
2022/06/03 00:01:53;;;;;;;12.50;4.60;;;;;;;15.62;49.23;99661.45;233405;1222;140477;-60
2022/06/03 00:07:15;;;;;;;10.40;4.90;;;;;;;15.55;49.53;99655.73;233266;1224;138614;-61
2022/06/03 00:12:27;;;;;;;8.10;4.20;;;;;;;15.49;49.84;99662.58;233338;1224;138577;-59
2022/06/03 00:17:55;;;;;;;6.40;4.50;;;;;;;15.39;49.84;99658.14;232747;1224;138209;-60
2022/06/03 00:23:16;;;;;;;9.10;4.50;;;;;;;15.30;50.08;99665.55;232171;1224;138225;-61
2022/06/03 00:28:22;;;;;;;9.00;3.90;;;;;;;15.23;50.37;99664.80;233172;1223;138484;-60
2022/06/03 00:33:49;;;;;;;8.70;4.10;;;;;;;15.17;50.58;99657.34;232482;1222;138360;-60
2022/06/03 00:38:59;;;;;;;6.50;3.70;;;;;;;15.09;50.66;99657.20;232462;1224;139801;-60
2022/06/03 00:44:27;;;;;;;8.10;3.80;;;;;;;15.01;50.89;99652.58;232682;1221;138708;-60
2022/06/03 00:49:36;;;;;;;5.70;3.80;;;;;;;14.93;50.85;99648.18;232660;1224;138060;-60
2022/06/03 00:55:02;;;;;;;7.60;3.90;;;;;;;14.84;50.89;99644.28;232876;1222;138671;-59
2022/06/03 01:00:25;;;;;;;11.30;3.60;;;;;;;14.74;51.06;99640.34;232913;1223;138260;-60
2022/06/03 01:05:55;;;;;;;8.90;3.60;;;;;;;14.64;51.11;99644.30;232714;1223;139935;-60
2022/06/03 01:11:11;;;;;;;8.40;3.80;;;;;;;14.56;51.35;99641.29;232514;1224;138388;-60
2022/06/03 01:16:44;;;;;;;6.70;4.00;;;;;;;14.51;51.39;99650.14;232851;1224;138538;-60
2022/06/03 01:22:26;;;;;;;7.60;3.80;;;;;;;14.41;51.49;99651.85;233078;1222;138912;-60
2022/06/03 01:28:19;;;;;;;5.30;3.60;;;;;;;14.30;51.81;99654.02;232584;1223;138883;-60
2022/06/03 01:33:37;;;;;;;4.90;3.00;;;;;;;14.23;51.84;99654.20;233049;1224;139328;-61
2022/06/03 01:39:17;;;;;;;4.80;3.00;;;;;;;14.21;52.00;99654.86;232794;1224;139754;-61
2022/06/03 01:44:22;;;;;;;8.30;3.50;;;;;;;14.16;52.04;99661.77;232569;1223;138380;-60
2022/06/03 01:49:50;;;;;;;6.80;3.30;;;;;;;14.14;52.00;99659.77;232763;1223;139716;-60
2022/06/03 01:55:17;;;;;;;7.50;3.70;;;;;;;14.08;52.19;99660.19;232897;1223;138763;-60
2022/06/03 02:00:33;;;;;;;6.50;3.40;;;;;;;14.02;52.28;99661.86;232778;1223;139061;-61
2022/06/03 02:05:54;;;;;;;9.60;3.60;;;;;;;13.99;52.18;99665.26;232558;1223;138873;-60
2022/06/03 02:11:08;;;;;;;6.40;3.30;;;;;;;13.97;52.37;99671.60;232991;1222;138984;-60
2022/06/03 02:16:32;;;;;;;7.20;3.00;;;;;;;13.93;52.41;99678.30;232850;1223;231017;-59
2022/06/03 02:21:48;;;;;;;8.40;3.20;;;;;;;13.85;52.43;99679.89;232990;1223;138890;-59
2022/06/03 02:27:09;;;;;;;9.10;3.70;;;;;;;13.81;52.47;99682.11;232992;1222;138524;-60
2022/06/03 02:32:51;;;;;;;6.70;3.10;;;;;;;13.74;52.45;99688.13;232754;1223;138031;-60
2022/06/03 02:38:02;;;;;;;9.10;3.30;;;;;;;13.68;52.90;99690.48;232660;1223;139571;-59
2022/06/03 02:43:28;;;;;;;8.50;3.60;;;;;;;13.61;52.84;99693.23;232482;1223;139301;-59
2022/06/03 02:49:10;;;;;;;6.60;3.20;;;;;;;13.55;53.08;99690.75;232401;1223;138760;-60
2022/06/03 02:54:25;;;;;;;10.60;3.60;;;;;;;13.50;52.83;99692.16;232556;1224;138681;-61
2022/06/03 02:59:43;;;;;;;5.60;3.10;;;;;;;13.47;53.09;99696.42;232791;1223;138293;-62
2022/06/03 03:05:05;;;;;;;5.90;3.20;;;;;;;13.43;53.11;99696.64;232867;1223;138703;-61
2022/06/03 03:10:19;;;;;;;3.40;2.60;;;;;;;13.48;53.30;99703.98;232707;1223;139857;-63
2022/06/03 03:15:36;;;;;;;4.60;2.60;;;;;;;13.48;53.07;99713.83;232803;1223;140125;-63
2022/06/03 03:20:48;;;;;;;4.70;2.50;;;;;;;13.47;52.76;99716.21;232602;1223;138765;-62
2022/06/03 03:26:35;;;;;;;3.80;2.70;;;;;;;13.45;53.23;99719.33;232644;1223;139511;-63
2022/06/03 03:31:59;;;;;;;4.30;2.60;;;;;;;13.40;53.46;99719.35;231923;1226;139019;-62
2022/06/03 03:37:36;;;;;;;5.70;2.60;;;;;;;13.38;53.48;99714.80;233334;1219;209052;-62
2022/06/03 03:43:00;;;;;;;5.60;2.30;;;;;;;13.41;53.73;99709.83;233265;1219;138814;-60
2022/06/03 03:48:11;;;;;;;4.60;3.10;;;;;;;13.39;53.67;99714.02;233252;1218;139094;-62
2022/06/03 03:53:30;;;;;;;6.90;3.40;;;;;;;13.47;53.68;99719.08;233105;1221;139161;-60
2022/06/03 03:58:48;;;;;;;5.00;2.90;;;;;;;13.61;54.21;99722.97;233197;1220;141558;-60
2022/06/03 04:04:17;;;;;;;7.20;3.30;;;;;;;13.75;54.15;99721.22;233285;1220;138267;-60
2022/06/03 04:09:57;;;;;;;6.00;3.00;;;;;;;13.86;54.09;99717.31;233450;1219;138293;-63
2022/06/03 04:15:34;;;;;;;6.40;3.10;;;;;;;14.01;54.33;99722.00;233253;1220;138630;-62
2022/06/03 04:20:58;;;;;;;5.30;3.00;;;;;;;14.17;53.96;99730.42;233216;1219;138188;-63
2022/06/03 04:26:22;;;;;;;6.50;3.30;;;;;;;14.32;53.96;99725.67;233114;1219;138004;-64
2022/06/03 04:32:07;;;;;;;5.20;2.90;;;;;;;14.51;54.01;99735.38;233462;1217;138987;-63
2022/06/03 04:37:29;;;;;;;134.60;117.80;;;;;;;14.65;53.93;99730.29;233346;1219;138547;-63
2022/06/03 04:42:50;;;;;;;11.80;7.60;;;;;;;14.94;54.42;99734.96;233070;1219;138947;-65
2022/06/03 04:49:01;;;;;;;148.10;106.80;;;;;;;15.46;55.53;99734.47;233235;1219;138661;-62
2022/06/03 04:54:29;;;;;;;9.20;6.90;;;;;;;16.16;54.91;99732.13;233250;1219;139118;-61
2022/06/03 05:00:05;;;;;;;76.10;62.00;;;;;;;16.50;54.62;99725.27;233289;1219;138536;-59
2022/06/03 05:05:16;;;;;;;;;;;;;;;17.10;54.41;99723.92;233390;1220;139496;-63
2022/06/03 05:10:22;;;;;;;36.10;15.30;;;;;;;17.41;53.93;99725.10;233376;1219;126030;-63
2022/06/03 05:15:37;;;;;;;176.90;89.50;;;;;;;17.69;54.23;99731.84;233497;1219;139707;-63
2022/06/03 05:20:49;;;;;;;84.20;32.40;;;;;;;17.82;52.38;99738.37;233376;1219;139496;-63
2022/06/03 05:26:07;;;;;;;13.90;4.40;;;;;;;17.70;51.62;99741.77;233235;1219;139483;-62
2022/06/03 05:31:13;;;;;;;12.00;3.80;;;;;;;17.60;51.43;99746.86;233177;1219;138242;-62
2022/06/03 05:36:46;;;;;;;6.70;3.60;;;;;;;17.55;51.33;99745.66;233290;1219;138307;-62
2022/06/03 05:42:23;;;;;;;10.20;4.20;;;;;;;17.56;51.21;99749.17;233250;1220;138398;-59
2022/06/03 05:47:34;;;;;;;16.20;5.10;;;;;;;17.58;51.17;99739.17;233317;1220;138650;-60
2022/06/03 05:53:07;;;;;;;18.90;6.80;;;;;;;17.65;50.89;99744.69;233277;1218;138764;-60
2022/06/03 05:58:28;;;;;;;14.10;6.30;;;;;;;17.70;50.33;99745.71;233251;1219;138870;-60
2022/06/03 06:03:51;;;;;;;7.90;4.20;;;;;;;17.75;50.26;99746.95;233442;1218;138992;-61
2022/06/03 06:09:05;;;;;;;12.80;4.40;;;;;;;17.83;50.24;99744.41;233514;1219;138342;-64
2022/06/03 06:14:23;;;;;;;20.00;10.40;;;;;;;17.92;50.09;99746.48;233349;1219;138565;-64
2022/06/03 06:19:37;;;;;;;77.00;43.80;;;;;;;18.16;51.22;99737.36;233451;1219;138951;-62
2022/06/03 06:25:11;;;;;;;23.40;9.10;;;;;;;18.42;50.83;99736.84;233376;1220;139073;-64
2022/06/03 06:30:24;;;;;;;36.20;23.20;;;;;;;18.49;50.44;99736.98;233443;1219;139113;-65
2022/06/03 06:35:32;;;;;;;13.50;10.50;;;;;;;18.66;51.19;99725.95;233288;1219;138725;-66
2022/06/03 06:40:53;;;;;;;7.70;5.50;;;;;;;19.07;51.37;99729.73;233456;1219;139383;-64
2022/06/03 06:46:15;;;;;;;9.60;5.10;;;;;;;19.25;50.46;99730.72;233207;1219;138531;-63
2022/06/03 06:51:53;;;;;;;9.80;4.80;;;;;;;19.23;49.84;99729.38;233456;1219;138439;-64
2022/06/03 06:57:08;;;;;;;12.20;5.30;;;;;;;19.29;49.47;99727.98;233262;1219;138112;-63
2022/06/03 07:02:27;;;;;;;11.40;5.00;;;;;;;19.40;49.42;99722.56;233471;1219;138330;-60
2022/06/03 07:07:52;;;;;;;17.60;12.10;;;;;;;19.59;49.66;99720.48;233438;1218;138705;-60
2022/06/03 07:13:12;;;;;;;7.30;4.60;;;;;;;19.78;49.63;99715.44;233429;1219;139836;-64
2022/06/03 07:24:11;;;;;;;;;;;;;;;20.08;48.27;99707.69;233223;1219;139281;-63
2022/06/03 07:29:20;;;;;;;5.10;2.30;;;;;;;20.18;48.04;99703.48;233411;1219;124714;-63
2022/06/03 07:34:29;;;;;;;37.40;28.80;;;;;;;20.28;47.43;99701.33;233346;1218;138192;-62
2022/06/03 07:39:54;;;;;;;7.70;2.90;;;;;;;20.38;47.09;99705.29;233554;1219;138935;-63
2022/06/03 07:45:35;;;;;;;8.40;2.90;;;;;;;20.51;46.57;99709.30;233524;1219;138917;-63
2022/06/03 07:51:16;;;;;;;10.50;2.80;;;;;;;20.58;46.21;99704.69;233240;1217;138770;-60
2022/06/03 07:56:26;;;;;;;8.30;2.80;;;;;;;20.68;45.96;99707.60;233244;1219;139011;-60
2022/06/03 08:01:33;;;;;;;9.60;3.40;;;;;;;20.75;46.03;99702.55;233309;1219;138596;-60
2022/06/03 08:12:00;;;;;;;20.10;16.20;;;;;;;20.96;45.82;99689.11;233228;1219;138745;-62
2022/06/03 08:17:08;;;;;;;9.10;4.90;;;;;;;21.07;46.03;99682.41;233267;1219;138770;-58
2022/06/03 08:22:16;;;;;;;5.60;3.10;;;;;;;21.20;45.81;99677.89;233431;1218;138971;-60
2022/06/03 08:27:24;;;;;;;5.50;3.30;;;;;;;21.29;45.70;99675.81;233483;1217;138572;-62
2022/06/03 08:32:40;;;;;;;10.30;5.10;;;;;;;21.40;45.72;99670.36;233281;1219;138549;-62
2022/06/03 08:38:20;;;;;;;15.10;9.40;;;;;;;21.46;45.36;99671.65;233406;1218;138245;-65
2022/06/03 08:43:33;;;;;;;26.40;12.20;;;;;;;21.59;44.48;99677.77;233394;1218;138862;-59
2022/06/03 08:48:43;;;;;;;5.90;3.80;;;;;;;21.64;44.64;99668.39;233471;1219;139083;-59
2022/06/03 08:54:16;;;;;;;9.60;4.80;;;;;;;21.72;44.57;99664.40;233438;1219;141252;-61
2022/06/03 08:59:25;;;;;;;8.50;4.00;;;;;;;21.79;44.22;99657.79;233388;1219;139717;-60
2022/06/03 09:04:35;;;;;;;3.30;2.30;;;;;;;21.89;44.10;99662.89;233435;1219;139170;-62
2022/06/03 09:10:02;;;;;;;4.90;1.90;;;;;;;21.95;43.72;99663.34;233587;1219;138544;-63
2022/06/03 09:15:10;;;;;;;4.70;2.40;;;;;;;22.02;43.68;99654.97;233511;1220;138671;-62
2022/06/03 09:20:44;;;;;;;3.60;2.30;;;;;;;22.07;43.44;99651.33;233293;1219;138513;-63
2022/06/03 09:25:51;;;;;;;15.80;11.00;;;;;;;22.23;43.26;99640.52;233198;1219;138446;-63
2022/06/03 09:30:57;;;;;;;5.20;2.10;;;;;;;22.44;43.02;99644.70;233394;1217;139555;-62
2022/06/03 09:36:05;;;;;;;3.50;2.20;;;;;;;22.59;42.60;99634.65;233616;1218;138561;-63
2022/06/03 09:41:09;;;;;;;3.70;2.20;;;;;;;22.69;42.28;99629.94;233304;1219;138708;-61
2022/06/03 09:46:15;;;;;;;7.20;2.00;;;;;;;22.87;42.07;99630.41;233367;1219;139502;-62
2022/06/03 09:51:55;;;;;;;6.70;1.80;;;;;;;23.12;41.94;99632.27;233576;1219;138540;-60
2022/06/03 09:56:52;;;;;;;4.20;2.00;;;;;;;23.34;41.24;99629.83;233621;1217;138435;-59
2022/06/03 10:01:55;;;;;;;3.60;2.40;;;;;;;23.42;40.29;99633.48;233291;1219;138062;-60
2022/06/03 10:07:00;;;;;;;4.60;1.90;;;;;;;23.57;39.89;99633.36;233240;1219;139443;-61
2022/06/03 10:17:34;;;;;;;4.00;2.20;;;;;;;23.88;39.16;99618.11;233352;1217;140195;-60
2022/06/03 10:22:44;;;;;;;4.50;1.50;;;;;;;23.92;38.50;99617.61;233238;1219;138603;-61
2022/06/03 10:27:47;;;;;;;3.10;1.50;;;;;;;23.94;37.89;99617.89;233338;1218;138181;-60
2022/06/03 10:32:51;;;;;;;4.40;1.60;;;;;;;24.17;37.83;99609.70;233414;1219;138926;-60
2022/06/03 10:38:00;;;;;;;5.20;1.40;;;;;;;24.43;37.84;99604.50;233333;1219;138637;-59
2022/06/03 10:43:07;;;;;;;2.80;1.70;;;;;;;24.72;37.73;99594.48;233339;1218;138573;-60
2022/06/03 10:48:20;;;;;;;4.60;1.50;;;;;;;24.96;36.90;99591.91;233335;1217;139332;-59
2022/06/03 11:04:24;;;;;;;3.30;1.60;;;;;;;25.65;35.74;99575.96;233336;1219;138463;-59
2022/06/03 11:09:27;;;;;;;4.40;1.80;;;;;;;25.84;35.43;99568.20;233408;1219;138760;-60
2022/06/03 11:14:38;;;;;;;2.70;1.50;;;;;;;25.98;35.11;99560.37;233341;1219;138421;-59
2022/06/03 11:20:18;;;;;;;1.50;1.30;;;;;;;26.14;34.36;99561.30;233351;1217;138358;-58
2022/06/03 11:25:27;;;;;;;2.70;1.20;;;;;;;26.30;33.36;99559.30;233282;1219;139022;-60
2022/06/03 11:30:48;;;;;;;3.20;1.20;;;;;;;26.38;32.93;99557.96;233306;1219;140304;-60
2022/06/03 11:35:56;;;;;;;7.00;1.60;;;;;;;26.51;32.89;99550.44;233299;1218;139214;-58
2022/06/03 11:41:08;;;;;;;12.60;1.70;;;;;;;26.71;32.95;99554.58;233309;1219;138762;-61
2022/06/03 11:46:15;;;;;;;3.30;1.40;;;;;;;26.79;32.63;99543.40;233394;1219;138374;-60
2022/06/03 11:51:19;;;;;;;5.10;1.30;;;;;;;26.95;32.32;99533.05;233568;1219;139791;-59
2022/06/03 11:56:25;;;;;;;9.80;1.60;;;;;;;27.10;32.04;99522.46;233710;1219;139670;-59
2022/06/03 12:01:49;;;;;;;4.10;1.40;;;;;;;27.29;31.93;99516.98;233175;1220;139526;-58
2022/06/03 12:06:58;;;;;;;3.10;1.40;;;;;;;27.44;31.79;99513.45;233213;1220;138286;-56
2022/06/03 12:17:32;;;;;;;4.70;1.60;;;;;;;27.61;31.27;99496.64;233475;1220;139194;-58
2022/06/03 12:22:36;;;;;;;;;;;;;;;27.78;31.39;99496.96;233300;1219;138583;-58
2022/06/03 12:28:02;;;;;;;4.50;1.50;;;;;;;27.85;31.37;99487.22;233376;1219;125097;-58
2022/06/03 12:33:11;;;;;;;9.10;1.70;;;;;;;27.85;31.15;99479.95;233478;1218;139517;-58
2022/06/03 12:38:20;;;;;;;6.00;1.90;;;;;;;27.84;31.16;99477.11;233555;1217;138183;-58
2022/06/03 12:43:28;;;;;;;3.90;2.00;;;;;;;27.88;31.19;99462.94;233273;1219;139065;-58
2022/06/03 12:48:37;;;;;;;3.10;1.70;;;;;;;28.03;31.14;99455.65;233353;1219;139167;-59
2022/06/03 12:53:42;;;;;;;5.00;1.80;;;;;;;28.05;30.98;99440.11;233530;1217;139050;-58
2022/06/03 12:59:01;;;;;;;2.20;1.60;;;;;;;28.13;30.95;99429.46;233418;1219;138643;-59
2022/06/03 13:04:44;;;;;;;2.80;1.80;;;;;;;28.27;30.94;99430.33;233244;1219;138563;-62
2022/06/03 13:09:51;;;;;;;4.10;1.60;;;;;;;28.42;30.93;99421.35;233452;1220;138768;-62
2022/06/03 13:15:15;;;;;;;3.00;1.60;;;;;;;28.60;30.66;99418.77;233363;1220;138677;-61
2022/06/03 13:20:39;;;;;;;3.20;1.30;;;;;;;28.71;30.57;99400.81;233307;1220;138872;-62
2022/06/03 13:25:42;;;;;;;3.10;1.80;;;;;;;28.87;30.27;99403.12;233192;1220;138426;-61
2022/06/03 13:31:07;;;;;;;2.20;1.80;;;;;;;29.02;30.06;99394.64;233386;1220;139425;-62
2022/06/03 13:36:11;;;;;;;3.60;1.60;;;;;;;29.10;30.08;99384.31;233376;1220;138904;-61
2022/06/03 13:46:48;;;;;;;5.20;1.50;;;;;;;29.27;29.82;99380.51;233261;1219;138340;-60
2022/06/03 13:51:54;;;;;;;8.70;3.90;;;;;;;29.45;29.81;99376.45;233283;1220;139354;-58
2022/06/03 13:57:30;;;;;;;2.50;1.60;;;;;;;29.52;29.44;99364.39;233441;1220;138638;-59
2022/06/03 14:02:39;;;;;;;4.30;1.60;;;;;;;29.68;29.49;99369.31;233447;1218;138064;-59
2022/06/03 14:07:55;;;;;;;6.60;1.90;;;;;;;29.85;29.05;99355.05;234253;1219;110782;-59
2022/06/03 14:13:15;;;;;;;7.80;2.00;;;;;;;29.83;28.80;99345.34;234061;1219;140079;-61
2022/06/03 14:18:46;;;;;;;3.50;1.70;;;;;;;29.81;28.84;99339.69;233057;1219;138514;-60
2022/06/03 14:24:36;;;;;;;8.30;2.40;;;;;;;29.85;28.74;99340.48;234378;1220;109844;-59
2022/06/03 14:29:52;;;;;;;6.00;1.50;;;;;;;29.66;28.32;99337.02;234280;1219;107592;-61
2022/06/03 14:35:09;;;;;;;3.30;1.90;;;;;;;29.37;28.49;99330.87;234324;1217;94609;-60
2022/06/03 14:40:16;;;;;;;4.90;1.60;;;;;;;29.03;28.28;99325.08;234311;1218;109962;-60
2022/06/03 14:45:21;;;;;;;2.70;1.60;;;;;;;28.59;28.52;99319.39;234294;1218;107168;-59
2022/06/03 14:50:28;;;;;;;1.60;1.30;;;;;;;28.33;28.81;99324.06;234403;1217;94438;-60
2022/06/03 14:55:39;;;;;;;4.50;1.70;;;;;;;28.08;28.97;99327.91;234283;1217;138032;-61
2022/06/03 15:01:03;;;;;;;3.00;1.50;;;;;;;27.91;28.89;99313.83;233117;1217;140236;-60
2022/06/03 15:06:23;;;;;;;3.20;1.50;;;;;;;27.79;29.12;99301.26;234450;1219;95276;-59
2022/06/03 15:11:34;;;;;;;6.70;1.90;;;;;;;27.66;29.20;99299.19;234337;1218;109862;-59
2022/06/03 15:16:53;;;;;;;2.60;1.60;;;;;;;27.49;29.31;99292.96;234329;1217;106606;-60
2022/06/03 15:21:57;;;;;;;6.40;1.80;;;;;;;27.25;29.54;99281.27;234402;1218;94476;-59
2022/06/03 15:27:00;;;;;;;7.00;1.70;;;;;;;27.07;29.56;99283.06;234074;1219;137794;-59
2022/06/03 15:32:04;;;;;;;2.00;1.40;;;;;;;26.90;29.68;99284.40;234166;1219;137618;-60
2022/06/03 15:37:07;;;;;;;7.30;3.70;;;;;;;26.76;29.96;99277.95;233045;1217;139376;-61
2022/06/03 15:42:21;;;;;;;6.40;1.80;;;;;;;26.58;29.97;99269.48;233318;1219;138793;-59
2022/06/03 15:47:35;;;;;;;2.20;1.40;;;;;;;26.43;30.34;99265.85;233353;1217;139069;-59
2022/06/03 15:52:51;;;;;;;4.00;1.50;;;;;;;26.37;30.47;99278.02;233370;1219;138559;-60
2022/06/03 15:58:22;;;;;;;1.80;1.40;;;;;;;26.29;30.48;99277.91;233300;1217;138593;-59
2022/06/03 16:03:36;;;;;;;4.30;1.40;;;;;;;26.19;30.83;99269.42;233305;1217;138920;-59
2022/06/03 16:09:00;;;;;;;2.20;1.40;;;;;;;26.09;30.66;99273.29;233295;1217;139609;-59
2022/06/03 16:14:22;;;;;;;3.40;1.50;;;;;;;25.89;30.93;99281.75;233300;1219;138441;-59
2022/06/03 16:19:31;;;;;;;2.80;1.40;;;;;;;25.80;30.94;99277.58;233465;1217;138511;-59
2022/06/03 16:24:43;;;;;;;7.00;2.30;;;;;;;25.76;30.96;99281.42;233440;1217;138917;-59
2022/06/03 16:30:15;;;;;;;5.90;2.10;;;;;;;25.62;31.22;99282.81;233451;1217;138619;-58
2022/06/03 16:35:20;;;;;;;25.30;20.10;;;;;;;25.50;31.43;99284.47;233448;1217;138789;-59
2022/06/03 16:40:34;;;;;;;4.90;2.30;;;;;;;25.43;31.31;99279.92;233336;1219;139183;-59
2022/06/03 16:46:11;;;;;;;2.80;1.70;;;;;;;25.36;31.44;99291.32;233396;1218;139806;-58
2022/06/03 16:51:18;;;;;;;2.20;1.50;;;;;;;25.22;31.76;99294.27;233343;1218;139319;-59
2022/06/03 16:56:38;;;;;;;4.20;1.70;;;;;;;25.18;31.97;99302.70;233233;1217;138934;-57
2022/06/03 17:01:45;;;;;;;8.50;2.50;;;;;;;25.20;32.19;99299.05;233152;1219;138680;-60
2022/06/03 17:06:58;;;;;;;7.30;2.70;;;;;;;25.18;32.67;99299.08;233253;1217;139565;-60
2022/06/03 17:12:06;;;;;;;5.50;2.20;;;;;;;25.13;33.33;99284.02;233584;1217;138629;-61
2022/06/03 17:17:16;;;;;;;5.70;2.60;;;;;;;25.08;33.77;99281.12;233442;1217;138888;-60
2022/06/03 17:22:22;;;;;;;4.50;2.40;;;;;;;24.98;34.19;99283.13;233471;1217;139026;-60
2022/06/03 17:27:42;;;;;;;8.70;4.20;;;;;;;24.92;34.86;99289.48;233333;1217;139482;-60
2022/06/03 17:33:03;;;;;;;7.10;3.90;;;;;;;24.82;35.09;99281.84;233358;1217;138719;-61
2022/06/03 17:38:36;;;;;;;5.00;2.60;;;;;;;24.77;35.00;99274.70;233263;1217;139133;-61
2022/06/03 17:44:04;;;;;;;7.20;2.80;;;;;;;24.66;34.99;99257.53;233362;1217;139166;-60
2022/06/03 17:49:19;;;;;;;4.10;3.00;;;;;;;24.55;35.71;99254.23;233045;1219;138427;-61
2022/06/03 18:00:05;;;;;;;7.30;5.90;;;;;;;24.37;36.85;99235.26;233344;1219;138839;-60
2022/06/03 18:05:23;;;;;;;8.70;4.70;;;;;;;24.24;37.25;99231.44;233524;1217;138166;-61
2022/06/03 18:10:38;;;;;;;39.00;26.50;;;;;;;24.17;37.52;99232.66;233388;1217;138704;-60
2022/06/03 18:15:41;;;;;;;18.90;15.40;;;;;;;24.13;37.16;99238.05;233537;1217;138484;-60
2022/06/03 18:20:50;;;;;;;6.30;3.80;;;;;;;24.15;37.21;99238.70;233335;1217;139788;-61
2022/06/03 18:26:08;;;;;;;10.90;3.60;;;;;;;24.10;37.05;99235.25;233422;1217;138625;-61
2022/06/03 18:31:41;;;;;;;6.10;2.90;;;;;;;24.07;37.26;99234.73;233360;1217;138685;-60
2022/06/03 18:37:07;;;;;;;9.10;2.80;;;;;;;23.99;37.38;99238.70;233241;1217;138642;-60
2022/06/03 18:48:03;;;;;;;3.90;2.20;;;;;;;23.88;36.45;99230.56;233565;1217;138623;-61
2022/06/03 18:53:55;;;;;;;23.90;20.70;;;;;;;23.85;36.16;99229.90;233358;1217;138428;-62
2022/06/03 18:59:36;;;;;;;32.90;27.60;;;;;;;23.82;35.91;99245.14;233256;1217;138959;-61
2022/06/03 19:05:11;;;;;;;13.80;6.30;;;;;;;23.75;36.08;99255.91;233356;1217;138364;-61
2022/06/03 19:10:33;;;;;;;95.70;56.90;;;;;;;23.67;35.97;99264.14;233246;1217;139444;-60
2022/06/03 19:16:02;;;;;;;62.50;51.60;;;;;;;23.60;36.12;99262.74;233350;1219;139928;-60
2022/06/03 19:21:45;;;;;;;9.40;5.80;;;;;;;23.53;36.08;99259.16;233333;1217;140252;-62
2022/06/03 19:26:49;;;;;;;8.00;4.00;;;;;;;23.41;36.15;99261.02;233407;1217;138204;-62
2022/06/03 19:31:54;;;;;;;6.70;3.70;;;;;;;23.32;36.18;99264.09;233324;1217;138689;-60
2022/06/03 19:37:13;;;;;;;26.60;15.90;;;;;;;23.24;36.24;99255.86;233466;1215;138313;-62
2022/06/03 19:42:28;;;;;;;46.50;38.40;;;;;;;23.16;36.24;99259.48;233374;1217;139094;-62
2022/06/03 19:48:00;;;;;;;6.60;4.00;;;;;;;23.07;36.16;99270.59;233602;1216;138604;-63
2022/06/03 19:53:29;;;;;;;7.40;3.00;;;;;;;22.93;36.19;99273.25;233345;1217;138699;-62
2022/06/03 19:58:54;;;;;;;8.90;2.80;;;;;;;22.81;36.31;99275.83;233247;1217;138663;-62
2022/06/03 20:04:13;;;;;;;9.80;2.90;;;;;;;22.66;36.44;99280.30;233359;1219;138911;-61
2022/06/03 20:09:54;;;;;;;5.30;2.60;;;;;;;22.53;36.49;99281.64;233413;1217;138154;-60
2022/06/03 20:14:59;;;;;;;8.60;3.00;;;;;;;22.42;36.66;99280.93;233055;1219;138499;-63
2022/06/03 20:20:11;;;;;;;5.60;2.60;;;;;;;22.31;36.86;99277.27;233292;1218;138562;-62
2022/06/03 20:25:25;;;;;;;5.40;2.70;;;;;;;22.19;36.97;99275.97;233453;1217;138475;-61
2022/06/03 20:30:31;;;;;;;5.80;3.40;;;;;;;22.11;37.21;99274.08;233521;1217;140071;-62
2022/06/03 20:36:00;;;;;;;4.20;2.80;;;;;;;22.02;37.33;99270.75;233521;1217;139199;-62
2022/06/03 20:41:27;;;;;;;5.00;3.00;;;;;;;21.95;37.58;99272.35;233323;1217;138745;-62
2022/06/03 20:46:43;;;;;;;4.70;2.70;;;;;;;21.88;37.72;99263.67;233431;1217;138941;-62
2022/06/03 20:51:48;;;;;;;4.60;2.80;;;;;;;21.81;37.91;99262.41;233375;1217;139642;-63
2022/06/03 20:57:03;;;;;;;4.70;2.90;;;;;;;21.76;38.07;99258.48;233365;1217;138446;-63
2022/06/03 21:02:25;;;;;;;6.10;2.80;;;;;;;21.73;38.17;99254.48;233505;1217;138526;-63
2022/06/03 21:12:58;;;;;;;5.40;3.00;;;;;;;21.63;38.44;99240.69;233029;1220;138712;-63
2022/06/03 21:18:02;;;;;;;5.70;3.00;;;;;;;21.58;38.50;99236.49;233612;1217;138977;-63
2022/06/03 21:23:10;;;;;;;4.60;2.90;;;;;;;21.56;38.55;99234.40;233307;1217;138187;-62
2022/06/03 21:28:14;;;;;;;5.00;2.80;;;;;;;21.52;38.69;99234.30;233357;1217;140370;-62
2022/06/03 21:33:23;;;;;;;4.50;2.80;;;;;;;21.51;38.70;99241.60;233306;1217;140300;-61
2022/06/03 21:38:38;;;;;;;5.70;2.90;;;;;;;21.46;38.78;99242.30;233215;1218;139865;-61
2022/06/03 21:43:50;;;;;;;5.40;3.30;;;;;;;21.41;38.92;99241.23;233409;1217;139525;-61
2022/06/03 21:48:59;;;;;;;7.70;3.20;;;;;;;21.35;39.00;99235.29;233394;1217;138399;-61
2022/06/03 21:54:07;;;;;;;5.10;3.00;;;;;;;21.33;39.10;99230.34;233599;1217;138307;-63
2022/06/03 21:59:17;;;;;;;6.00;3.00;;;;;;;21.30;39.12;99230.80;233454;1217;139838;-62
2022/06/03 22:04:22;;;;;;;5.60;3.20;;;;;;;21.26;39.27;99221.85;233373;1217;138592;-62
2022/06/03 22:09:25;;;;;;;5.60;3.30;;;;;;;21.24;39.27;99219.23;233419;1217;139024;-63
2022/06/03 22:14:28;;;;;;;5.50;3.40;;;;;;;21.22;39.36;99216.36;233398;1217;138977;-62
2022/06/03 22:19:31;;;;;;;6.20;3.10;;;;;;;21.20;39.45;99219.36;233402;1217;140104;-63
2022/06/03 22:24:34;;;;;;;6.00;3.20;;;;;;;21.13;39.52;99221.89;233465;1217;138304;-63
2022/06/03 22:29:39;;;;;;;5.70;3.30;;;;;;;21.08;39.57;99215.95;233586;1217;139347;-63
2022/06/03 22:35:05;;;;;;;5.90;3.20;;;;;;;21.06;39.69;99209.83;233403;1217;139147;-63
2022/06/03 22:40:21;;;;;;;;;;;;;;;21.06;39.66;99203.67;233589;1217;139215;-62
2022/06/03 22:45:24;;;;;;;6.10;3.10;;;;;;;21.04;39.74;99202.09;233570;1217;125084;-62
2022/06/03 22:50:28;;;;;;;6.80;3.30;;;;;;;20.99;39.88;99208.15;233543;1216;138654;-63
2022/06/03 22:55:31;;;;;;;4.40;3.10;;;;;;;20.96;40.02;99194.19;233380;1217;138644;-63
2022/06/03 23:00:34;;;;;;;6.00;3.60;;;;;;;20.92;40.09;99189.98;233659;1216;139254;-63
2022/06/03 23:05:38;;;;;;;5.30;3.00;;;;;;;20.88;40.26;99189.23;233873;1217;138019;-62
2022/06/03 23:10:41;;;;;;;5.40;3.30;;;;;;;20.83;40.41;99188.23;233677;1217;139283;-60
2022/06/03 23:15:45;;;;;;;7.00;3.10;;;;;;;20.79;40.44;99186.77;233524;1217;138429;-63
2022/06/03 23:20:51;;;;;;;5.10;3.20;;;;;;;20.77;40.50;99182.21;233494;1217;139016;-62
2022/06/03 23:26:01;;;;;;;5.60;3.00;;;;;;;20.77;40.65;99179.16;233482;1217;138551;-62
2022/06/03 23:31:07;;;;;;;5.40;3.20;;;;;;;20.75;40.74;99169.19;233660;1217;138575;-62
2022/06/03 23:36:10;;;;;;;5.00;3.20;;;;;;;20.73;40.82;99163.71;233461;1217;138880;-63
2022/06/03 23:46:35;;;;;;;5.40;3.50;;;;;;;20.67;41.09;99169.80;233564;1217;138171;-61
2022/06/03 23:51:38;;;;;;;5.40;3.40;;;;;;;20.61;41.18;99156.52;233408;1217;138182;-62
2022/06/03 23:57:01;;;;;;;6.20;3.60;;;;;;;20.56;41.33;99154.98;233460;1217;138560;-61
